Wetterdaten: aktuell Donnerstag, 07.05.2026 19:30
Datum Zeit Temperatur Luftfeuchte Luftdruck Regen Zeit Sonne Solar Taupunkt Windchill Windböen
07.05.2026 19:30 12,3 °C 68 % 1013,0 hPa 0,0 l/m² 20 min 37 W/m² 6,6 °C 12,3 °C 4,8 km/h (1 Bft)
07.05.2026 18:30 13,1 °C 67 % 1012,7 hPa 0,0 l/m² 5 min 132 W/m² 7,1 °C 13,1 °C 4,8 km/h (1 Bft)
07.05.2026 17:30 13,2 °C 66 % 1012,7 hPa 0,0 l/m² 20 min 163 W/m² 7,0 °C 13,2 °C 8,0 km/h (2 Bft)
07.05.2026 16:30 13,7 °C 66 % 1012,7 hPa 0,0 l/m² 10 min 545 W/m² 7,5 °C 13,7 °C 4,8 km/h (1 Bft)
07.05.2026 15:30 13,9 °C 64 % 1012,5 hPa 0,0 l/m² 10 min 279 W/m² 7,2 °C 13,9 °C 8,0 km/h (2 Bft)
07.05.2026 14:30 13,7 °C 64 % 1012,3 hPa 0,0 l/m² 10 min 381 W/m² 7,0 °C 13,7 °C 9,7 km/h (2 Bft)
07.05.2026 13:30 13,0 °C 68 % 1012,3 hPa 0,0 l/m² 40 min 403 W/m² 7,2 °C 13,0 °C 8,0 km/h (2 Bft)
07.05.2026 12:30 11,7 °C 73 % 1012,5 hPa 0,0 l/m² 20 min 158 W/m² 7,0 °C 11,7 °C 8,0 km/h (2 Bft)
07.05.2026 11:30 10,8 °C 78 % 1012,3 hPa 0,2 l/m² 0 min 334 W/m² 7,1 °C 10,8 °C 3,2 km/h (1 Bft)
07.05.2026 10:30 10,1 °C 80 % 1011,7 hPa 0,0 l/m² 0 min 148 W/m² 6,8 °C 10,1 °C 4,8 km/h (1 Bft)
07.05.2026 09:30 9,9 °C 87 % 1010,7 hPa 0,0 l/m² 0 min 186 W/m² 7,8 °C 9,9 °C 6,4 km/h (2 Bft)
07.05.2026 08:30 9,5 °C 89 % 1010,2 hPa 0,5 l/m² 0 min 54 W/m² 7,8 °C 9,5 °C 0,0 km/h (0 Bft)
07.05.2026 07:30 9,2 °C 91 % 1009,5 hPa 0,0 l/m² 0 min 26 W/m² 7,8 °C 9,2 °C 0,0 km/h (0 Bft)
07.05.2026 06:30 8,5 °C 91 % 1009,0 hPa 0,0 l/m² 0 min 9 W/m² 7,1 °C 8,5 °C 0,0 km/h (0 Bft)
07.05.2026 05:30 7,8 °C 91 % 1008,4 hPa 0,0 l/m² 0 min 0 W/m² 6,4 °C 7,8 °C 0,0 km/h (0 Bft)
07.05.2026 04:30 7,8 °C 90 % 1008,2 hPa 0,0 l/m² 0 min 0 W/m² 6,3 °C 7,8 °C 0,0 km/h (0 Bft)
07.05.2026 03:30 8,1 °C 91 % 1007,4 hPa 0,0 l/m² 0 min 0 W/m² 6,7 °C 8,1 °C 0,0 km/h (0 Bft)
07.05.2026 02:30 8,3 °C 90 % 1007,4 hPa 0,0 l/m² 0 min 0 W/m² 6,8 °C 8,3 °C 0,0 km/h (0 Bft)
07.05.2026 01:30 9,2 °C 89 % 1007,5 hPa 0,0 l/m² 0 min 0 W/m² 7,5 °C 9,2 °C 6,4 km/h (2 Bft)
07.05.2026 00:30 9,4 °C 92 % 1007,3 hPa 0,0 l/m² 0 min 0 W/m² 8,2 °C 9,4 °C 4,8 km/h (1 Bft)
07.05.2026 00:00 9,7 °C 92 % 1006,9 hPa 0,0 l/m² 0 min 0 W/m² 8,5 °C 9,7 °C 0,0 km/h (0 Bft)
_ Min-Zeit 05:00 16:50 00:00 - - - 05:00 05:00 19:25
Minimum _ 7,7 °C 62 % 1006,9 hPa - - - 6,2 °C 7,7 °C 0,0 km/h (0 Bft)
_ Max-Zeit 16:50 00:40 19:30 11:15 19:15 12:50 00:05 16:50 10:05
Maximum _ 14,5 °C 92 % 1013,0 hPa 0,2 l/m² 5 min 935 W/m² 8,5 °C 14,5 °C 16,1 km/h
N (3 Bft)
Durchschnitt _ 10,6 °C 80 % 1010,4 hPa #0,7 l/m² #2:15 h 241 W/m² 7,2 °C 10,6 °C 4,9 km/h (1 Bft)